createdAt,value
2019-02-16T00:00:21.312Z,64.30
2019-02-16T00:01:21.355Z,64.61
2019-02-16T00:02:21.287Z,64.40
2019-02-16T00:03:21.291Z,65.12
2019-02-16T00:04:21.278Z,64.84
2019-02-16T00:05:21.289Z,64.95
2019-02-16T00:06:21.270Z,65.26
2019-02-16T00:07:21.259Z,65.16
2019-02-16T00:08:21.256Z,65.81
2019-02-16T00:09:21.212Z,66.32
2019-02-16T00:10:21.241Z,66.32
2019-02-16T00:11:21.196Z,66.32
2019-02-16T00:12:21.191Z,65.88
2019-02-16T00:13:21.187Z,65.81
2019-02-16T00:14:21.174Z,65.57
2019-02-16T00:15:21.180Z,65.78
2019-02-16T00:16:21.157Z,65.16
2019-02-16T00:17:21.148Z,65.26
2019-02-16T00:18:22.966Z,64.64
2019-02-16T00:19:21.142Z,65.02
2019-02-16T00:20:21.131Z,64.71
2019-02-16T00:21:21.090Z,64.81
2019-02-16T00:22:21.080Z,64.71
2019-02-16T00:23:21.068Z,65.02
2019-02-16T00:24:21.062Z,64.61
2019-02-16T00:25:21.073Z,64.51
2019-02-16T00:26:21.038Z,64.81
2019-02-16T00:27:21.040Z,64.71
2019-02-16T00:28:21.041Z,65.02
2019-02-16T00:29:21.008Z,64.92
2019-02-16T00:30:21.028Z,65.23
2019-02-16T00:31:20.983Z,65.23
2019-02-16T00:32:20.989Z,64.61
2019-02-16T00:33:20.964Z,65.02
2019-02-16T00:34:20.961Z,64.92
2019-02-16T00:35:20.967Z,64.81
2019-02-16T00:36:20.953Z,64.71
2019-02-16T00:37:20.946Z,65.02
2019-02-16T00:38:20.921Z,64.95
2019-02-16T00:39:20.925Z,65.16
2019-02-16T00:40:20.903Z,65.05
2019-02-16T00:41:20.923Z,64.92
2019-02-16T00:42:20.869Z,64.81
2019-02-16T00:43:20.865Z,64.92
2019-02-16T00:44:20.851Z,64.92
2019-02-16T00:45:20.856Z,65.02
2019-02-16T00:46:20.868Z,65.12
2019-02-16T00:47:20.818Z,65.05
2019-02-16T00:48:20.811Z,65.02
2019-02-16T00:49:20.800Z,65.16
2019-02-16T00:50:20.822Z,65.16
2019-02-16T00:51:20.785Z,65.99
2019-02-16T00:52:20.789Z,65.88
2019-02-16T00:53:20.791Z,65.67
2019-02-16T00:54:20.781Z,65.78
2019-02-16T00:55:20.750Z,65.88
2019-02-16T00:56:20.788Z,65.78
2019-02-16T00:57:20.720Z,65.78
2019-02-16T00:58:20.707Z,65.88
2019-02-16T00:59:20.725Z,65.81
2019-02-16T01:00:20.718Z,65.78
2019-02-16T01:01:20.680Z,65.67
2019-02-16T01:02:20.682Z,65.88
2019-02-16T01:03:20.741Z,65.91
2019-02-16T01:04:20.643Z,65.78
2019-02-16T01:05:20.680Z,66.12
2019-02-16T01:06:20.648Z,65.78
2019-02-16T01:07:20.623Z,66.12
2019-02-16T01:08:20.611Z,66.22
2019-02-16T01:09:20.594Z,66.22
2019-02-16T01:10:20.610Z,66.12
2019-02-16T01:11:20.588Z,66.32
2019-02-16T01:12:20.560Z,66.42
2019-02-16T01:13:20.571Z,67.36
2019-02-16T01:14:20.564Z,67.08
2019-02-16T01:15:20.561Z,67.29
2019-02-16T01:16:20.529Z,67.39
2019-02-16T01:17:20.522Z,67.80
2019-02-16T01:18:20.500Z,67.60
2019-02-16T01:19:20.503Z,67.60
2019-02-16T01:20:20.521Z,67.49
2019-02-16T01:21:22.701Z,67.80
2019-02-16T01:22:20.478Z,67.60
2019-02-16T01:23:20.447Z,67.49
2019-02-16T01:24:20.446Z,67.80
2019-02-16T01:25:20.469Z,68.01
2019-02-16T01:26:20.431Z,67.73
2019-02-16T01:27:20.423Z,68.04
2019-02-16T01:28:20.418Z,67.83
2019-02-16T01:29:20.383Z,68.77
2019-02-16T01:30:20.378Z,69.08
2019-02-16T01:31:20.373Z,69.21
2019-02-16T01:32:20.388Z,69.35
2019-02-16T01:33:20.353Z,69.56
2019-02-16T01:34:20.349Z,70.00
2019-02-16T01:35:20.344Z,70.42
2019-02-16T01:36:20.310Z,70.42
2019-02-16T01:37:20.347Z,69.66
2019-02-16T01:38:20.308Z,69.97
2019-02-16T01:39:20.285Z,69.97
2019-02-16T01:40:20.279Z,69.21
2019-02-16T01:41:20.299Z,69.01
2019-02-16T01:42:20.287Z,69.11
2019-02-16T01:43:20.259Z,69.45
2019-02-16T01:44:20.271Z,70.00
2019-02-16T01:45:20.219Z,69.59
2019-02-16T01:46:20.208Z,70.42
2019-02-16T01:47:20.208Z,70.42
2019-02-16T01:48:20.220Z,70.52
2019-02-16T01:49:20.206Z,70.73
2019-02-16T01:50:20.207Z,70.42
2019-02-16T01:51:20.158Z,69.97
2019-02-16T01:52:20.151Z,69.97
2019-02-16T01:53:20.138Z,69.42
2019-02-16T01:54:20.139Z,69.42
2019-02-16T01:55:20.150Z,69.56
2019-02-16T01:56:20.114Z,69.63
2019-02-16T01:57:20.103Z,67.76
2019-02-16T01:58:20.087Z,68.77
2019-02-16T01:59:20.078Z,67.83
2019-02-16T02:00:20.099Z,68.04
2019-02-16T02:01:20.095Z,67.60
2019-02-16T02:02:20.048Z,67.91
2019-02-16T02:03:20.042Z,67.60
2019-02-16T02:04:20.039Z,67.60
2019-02-16T02:05:20.023Z,67.60
2019-02-16T02:06:20.031Z,67.49
2019-02-16T02:07:20.019Z,67.60
2019-02-16T02:08:20.037Z,67.91
2019-02-16T02:09:19.979Z,67.80
2019-02-16T02:10:19.974Z,67.49
2019-02-16T02:11:19.958Z,67.39
2019-02-16T02:12:19.952Z,67.08
2019-02-16T02:13:19.970Z,67.29
2019-02-16T02:14:19.960Z,67.29
2019-02-16T02:15:19.917Z,67.25
2019-02-16T02:16:19.909Z,67.15
2019-02-16T02:17:19.898Z,67.08
2019-02-16T02:18:19.913Z,67.18
2019-02-16T02:19:19.881Z,67.08
2019-02-16T02:20:19.885Z,67.91
2019-02-16T02:21:19.874Z,67.73
2019-02-16T02:22:19.878Z,67.73
2019-02-16T02:23:19.888Z,67.80
2019-02-16T02:24:19.854Z,67.60
2019-02-16T02:25:19.814Z,67.70
2019-02-16T02:26:19.824Z,68.15
2019-02-16T02:27:19.872Z,67.94
2019-02-16T02:28:19.787Z,68.15
2019-02-16T02:29:19.774Z,67.86
2019-02-16T02:30:19.829Z,68.80
2019-02-16T02:31:19.759Z,69.56
2019-02-16T02:32:19.797Z,69.59
2019-02-16T02:33:19.756Z,70.35
2019-02-16T02:34:19.725Z,71.00
2019-02-16T02:35:19.719Z,71.11
2019-02-16T02:36:19.699Z,72.38
2019-02-16T02:37:19.705Z,73.25
2019-02-16T02:38:19.711Z,74.11
2019-02-16T02:39:19.694Z,74.32
2019-02-16T02:40:19.661Z,75.71
2019-02-16T02:41:19.660Z,76.57
2019-02-16T02:42:19.754Z,77.09
2019-02-16T02:43:19.632Z,77.51
2019-02-16T02:44:19.651Z,78.28
2019-02-16T02:45:19.611Z,78.17
2019-02-16T02:46:19.599Z,78.63
2019-02-16T02:47:19.657Z,78.94
2019-02-16T02:48:19.581Z,79.70
2019-02-16T02:49:19.580Z,79.66
2019-02-16T02:50:19.593Z,79.98
2019-02-16T02:51:19.563Z,79.35
2019-02-16T02:52:19.560Z,79.42
2019-02-16T02:53:19.528Z,79.21
2019-02-16T02:54:19.546Z,78.69
2019-02-16T02:55:19.524Z,78.34
2019-02-16T02:56:19.525Z,77.16
2019-02-16T02:57:19.498Z,76.95
2019-02-16T02:58:19.478Z,76.85
2019-02-16T02:59:19.533Z,76.19
2019-02-16T03:00:19.472Z,75.85
2019-02-16T03:01:19.477Z,74.46
2019-02-16T03:02:19.451Z,73.60
2019-02-16T03:03:19.495Z,72.42
2019-02-16T03:04:19.417Z,70.94
2019-02-16T03:05:19.408Z,71.56
2019-02-16T03:06:19.401Z,70.18
2019-02-16T03:07:19.393Z,70.07
2019-02-16T03:08:19.421Z,70.10
2019-02-16T03:09:19.445Z,69.79
2019-02-16T03:10:19.357Z,69.59
2019-02-16T03:11:19.344Z,70.31
2019-02-16T03:12:19.365Z,70.83
2019-02-16T03:13:19.325Z,71.59
2019-02-16T03:14:19.344Z,71.35
2019-02-16T03:15:19.309Z,70.52
2019-02-16T03:16:19.294Z,70.42
2019-02-16T03:17:19.293Z,69.97
2019-02-16T03:18:19.276Z,69.97
2019-02-16T03:19:19.319Z,69.76
2019-02-16T03:20:19.258Z,69.97
2019-02-16T03:21:19.254Z,70.00
2019-02-16T03:22:19.234Z,70.07
2019-02-16T03:23:19.222Z,69.76
2019-02-16T03:24:19.255Z,69.45
2019-02-16T03:25:19.200Z,69.56
2019-02-16T03:26:19.187Z,69.56
2019-02-16T03:27:19.188Z,69.45
2019-02-16T03:28:19.172Z,69.45
2019-02-16T03:29:19.207Z,69.45
2019-02-16T03:30:19.150Z,69.79
2019-02-16T03:31:19.171Z,70.21
2019-02-16T03:32:19.160Z,69.69
2019-02-16T03:33:19.147Z,70.76
2019-02-16T03:34:19.133Z,71.49
2019-02-16T03:35:19.095Z,71.70
2019-02-16T03:36:19.133Z,71.42
2019-02-16T03:37:19.085Z,71.91
2019-02-16T03:38:19.092Z,71.66
2019-02-16T03:39:19.057Z,70.52
2019-02-16T03:40:19.067Z,69.79
2019-02-16T03:41:19.103Z,69.76
2019-02-16T03:42:19.020Z,69.66
2019-02-16T03:43:19.017Z,69.11
2019-02-16T03:44:19.000Z,69.35
2019-02-16T03:45:18.994Z,68.80
2019-02-16T03:46:19.012Z,68.70
2019-02-16T03:47:19.015Z,68.15
2019-02-16T03:48:18.986Z,68.04
2019-02-16T03:49:18.957Z,67.73
2019-02-16T03:50:18.938Z,67.94
2019-02-16T03:51:18.927Z,68.59
2019-02-16T03:52:18.955Z,67.97
2019-02-16T03:53:18.908Z,68.70
2019-02-16T03:54:18.915Z,68.59
2019-02-16T03:55:18.885Z,69.01
2019-02-16T03:56:18.882Z,69.04
2019-02-16T03:57:18.891Z,69.01
2019-02-16T03:58:18.868Z,69.01
2019-02-16T03:59:18.848Z,68.80
2019-02-16T04:00:18.835Z,68.59
2019-02-16T04:01:18.857Z,67.66
2019-02-16T04:02:18.850Z,67.86
2019-02-16T04:03:18.806Z,68.18
2019-02-16T04:04:18.800Z,68.49
2019-02-16T04:05:18.803Z,68.70
2019-02-16T04:06:18.807Z,67.79
2019-02-16T04:07:18.774Z,67.97
2019-02-16T04:08:18.766Z,68.07
2019-02-16T04:09:18.765Z,67.97
2019-02-16T04:10:18.735Z,67.97
2019-02-16T04:11:18.761Z,68.18
2019-02-16T04:12:18.719Z,68.28
2019-02-16T04:13:18.716Z,68.07
2019-02-16T04:14:18.701Z,67.83
2019-02-16T04:15:18.681Z,67.97
2019-02-16T04:16:18.822Z,67.86
2019-02-16T04:17:18.659Z,68.07
2019-02-16T04:18:18.650Z,68.28
2019-02-16T04:19:18.664Z,67.97
2019-02-16T04:20:18.668Z,67.97
2019-02-16T04:21:18.679Z,68.18
2019-02-16T04:22:24.641Z,68.07
2019-02-16T04:23:19.618Z,68.07
2019-02-16T04:24:18.609Z,68.07
2019-02-16T04:25:18.591Z,68.07
2019-02-16T04:26:18.599Z,67.97
2019-02-16T04:27:18.561Z,67.86
2019-02-16T04:28:18.554Z,68.18
2019-02-16T04:29:18.550Z,68.00
2019-02-16T04:30:18.527Z,68.21
2019-02-16T04:31:18.545Z,68.07
2019-02-16T04:32:18.507Z,67.76
2019-02-16T04:33:18.507Z,68.07
2019-02-16T04:34:18.534Z,68.00
2019-02-16T04:35:18.480Z,68.10
2019-02-16T04:36:18.464Z,68.00
2019-02-16T04:37:18.454Z,68.00
2019-02-16T04:38:18.472Z,68.21
2019-02-16T04:39:18.441Z,68.10
2019-02-16T04:40:18.462Z,68.62
2019-02-16T04:41:18.419Z,68.00
2019-02-16T04:42:18.418Z,68.10
2019-02-16T04:43:18.407Z,68.73
2019-02-16T04:44:18.425Z,68.83
2019-02-16T04:45:18.420Z,68.52
2019-02-16T04:46:18.371Z,68.83
2019-02-16T04:47:18.361Z,68.93
2019-02-16T04:48:18.376Z,68.62
2019-02-16T04:49:18.343Z,68.10
2019-02-16T04:50:18.326Z,67.79
2019-02-16T04:51:18.318Z,67.97
2019-02-16T04:52:18.312Z,67.90
2019-02-16T04:53:18.374Z,68.10
2019-02-16T04:54:18.294Z,68.10
2019-02-16T04:55:18.276Z,67.97
2019-02-16T04:56:18.273Z,68.28
2019-02-16T04:57:18.276Z,67.86
2019-02-16T04:58:18.270Z,67.86
2019-02-16T04:59:18.245Z,67.55
2019-02-16T05:00:18.275Z,67.69
2019-02-16T05:01:18.245Z,68.21
2019-02-16T05:02:18.208Z,68.18
2019-02-16T05:03:18.224Z,68.18
2019-02-16T05:04:18.204Z,67.97
2019-02-16T05:05:18.169Z,68.07
2019-02-16T05:06:18.162Z,67.97
2019-02-16T05:07:18.170Z,67.76
2019-02-16T05:08:18.174Z,67.35
2019-02-16T05:09:18.127Z,67.66
2019-02-16T05:10:18.141Z,67.66
2019-02-16T05:11:18.115Z,67.86
2019-02-16T05:12:18.129Z,67.76
2019-02-16T05:13:18.112Z,67.86
2019-02-16T05:14:18.082Z,67.97
2019-02-16T05:15:18.090Z,67.79
2019-02-16T05:16:18.057Z,68.07
2019-02-16T05:17:18.045Z,67.76
2019-02-16T05:18:18.070Z,67.79
2019-02-16T05:19:18.071Z,67.86
2019-02-16T05:20:18.018Z,67.14
2019-02-16T05:21:18.003Z,67.45
2019-02-16T05:22:18.011Z,68.07
2019-02-16T05:23:18.026Z,67.45
2019-02-16T05:24:17.985Z,67.90
2019-02-16T05:25:18.009Z,67.76
2019-02-16T05:26:17.954Z,68.00
2019-02-16T05:27:17.965Z,68.10
2019-02-16T05:28:17.967Z,68.31
2019-02-16T05:29:17.973Z,68.21
2019-02-16T05:30:17.912Z,68.00
2019-02-16T05:31:17.926Z,68.10
2019-02-16T05:32:17.891Z,68.00
2019-02-16T05:33:17.931Z,68.00
2019-02-16T05:34:17.873Z,68.10
2019-02-16T05:35:17.875Z,68.00
2019-02-16T05:36:17.858Z,68.00
2019-02-16T05:37:17.856Z,68.00
2019-02-16T05:38:17.855Z,68.21
2019-02-16T05:39:17.827Z,68.62
2019-02-16T05:40:17.814Z,68.21
2019-02-16T05:41:17.806Z,67.90
2019-02-16T05:42:17.874Z,67.90
2019-02-16T05:43:17.794Z,68.21
2019-02-16T05:44:17.803Z,67.90
2019-02-16T05:45:17.779Z,68.00
2019-02-16T05:46:17.747Z,67.90
2019-02-16T05:47:17.739Z,68.00
2019-02-16T05:48:17.758Z,68.10
2019-02-16T05:49:17.775Z,68.03
2019-02-16T05:50:17.709Z,68.86
2019-02-16T05:51:17.707Z,68.03
2019-02-16T05:52:17.701Z,68.10
2019-02-16T05:53:17.682Z,68.73
2019-02-16T05:54:17.691Z,68.21
2019-02-16T05:55:17.695Z,67.90
2019-02-16T05:56:17.653Z,68.10
2019-02-16T05:57:17.663Z,68.00
2019-02-16T05:58:17.632Z,68.21
2019-02-16T05:59:17.618Z,68.21
2019-02-16T06:00:17.617Z,68.21
2019-02-16T06:01:17.601Z,68.31
2019-02-16T06:02:17.615Z,67.90
2019-02-16T06:03:17.625Z,68.03
2019-02-16T06:04:17.577Z,68.76
2019-02-16T06:05:17.554Z,68.86
2019-02-16T06:06:17.575Z,68.86
2019-02-16T06:07:17.538Z,69.27
2019-02-16T06:08:17.530Z,69.27
2019-02-16T06:09:17.534Z,68.96
2019-02-16T06:10:17.548Z,69.21
2019-02-16T06:11:17.539Z,68.96
2019-02-16T06:12:17.487Z,68.96
2019-02-16T06:13:17.480Z,69.52
2019-02-16T06:14:17.473Z,69.31
2019-02-16T06:15:17.512Z,69.52
2019-02-16T06:16:17.455Z,70.07
2019-02-16T06:17:17.482Z,69.93
2019-02-16T06:18:17.428Z,70.35
2019-02-16T06:19:17.457Z,69.73
2019-02-16T06:20:17.403Z,69.83
2019-02-16T06:21:17.407Z,69.52
2019-02-16T06:22:17.430Z,69.31
2019-02-16T06:23:17.433Z,69.31
2019-02-16T06:24:17.372Z,69.73
2019-02-16T06:25:17.439Z,69.73
2019-02-16T06:26:17.345Z,69.73
2019-02-16T06:27:17.352Z,70.14
2019-02-16T06:28:17.329Z,70.07
2019-02-16T06:29:17.321Z,70.07
2019-02-16T06:30:17.336Z,70.04
2019-02-16T06:31:17.300Z,70.14
2019-02-16T06:32:17.293Z,70.17
2019-02-16T06:33:17.286Z,69.86
2019-02-16T06:34:17.272Z,70.38
2019-02-16T06:35:17.298Z,70.72
2019-02-16T06:36:17.247Z,70.62
2019-02-16T06:37:17.243Z,71.14
2019-02-16T06:38:17.226Z,71.21
2019-02-16T06:39:17.226Z,70.59
2019-02-16T06:40:17.242Z,69.65
2019-02-16T06:41:17.225Z,70.14
2019-02-16T06:42:17.193Z,69.93
2019-02-16T06:43:17.185Z,69.73
2019-02-16T06:44:17.163Z,69.73
2019-02-16T06:45:17.179Z,69.38
2019-02-16T06:46:17.177Z,69.31
2019-02-16T06:47:17.135Z,69.48
2019-02-16T06:48:17.144Z,69.31
2019-02-16T06:49:17.125Z,69.31
2019-02-16T06:50:17.118Z,69.83
2019-02-16T06:51:17.104Z,69.62
2019-02-16T06:52:17.124Z,69.76
2019-02-16T06:53:17.069Z,69.93
2019-02-16T06:54:17.063Z,69.52
2019-02-16T06:55:17.064Z,69.93
2019-02-16T06:56:19.040Z,69.10
2019-02-16T06:57:17.096Z,69.00
2019-02-16T06:58:17.034Z,69.17
2019-02-16T06:59:17.019Z,69.17
2019-02-16T07:00:17.007Z,69.31
2019-02-16T07:01:17.036Z,69.07
2019-02-16T07:02:17.006Z,68.76
2019-02-16T07:03:16.978Z,68.65
2019-02-16T07:04:16.967Z,68.03
2019-02-16T07:05:16.965Z,68.00
2019-02-16T07:06:16.938Z,68.10
2019-02-16T07:07:16.957Z,68.10
2019-02-16T07:08:16.940Z,68.21
2019-02-16T07:09:16.908Z,67.79
2019-02-16T07:10:16.910Z,67.17
2019-02-16T07:11:16.889Z,67.69
2019-02-16T07:12:16.928Z,67.45
2019-02-16T07:13:16.877Z,66.93
2019-02-16T07:14:16.861Z,66.93
2019-02-16T07:15:16.847Z,67.03
2019-02-16T07:16:16.851Z,66.62
2019-02-16T07:17:16.862Z,66.52
2019-02-16T07:18:16.816Z,66.83
2019-02-16T07:19:16.829Z,66.21
2019-02-16T07:20:16.833Z,66.72
2019-02-16T07:21:16.782Z,66.31
2019-02-16T07:22:16.788Z,66.62
2019-02-16T07:23:22.390Z,66.41
2019-02-16T07:24:17.754Z,66.90
2019-02-16T07:25:16.768Z,66.72
2019-02-16T07:26:16.757Z,66.80
2019-02-16T07:27:16.732Z,66.08
2019-02-16T07:28:16.740Z,66.38
2019-02-16T07:29:16.697Z,66.08
2019-02-16T07:30:16.742Z,65.73
2019-02-16T07:31:16.674Z,65.32
2019-02-16T07:32:16.668Z,65.42
2019-02-16T07:33:16.660Z,65.42
2019-02-16T07:34:16.648Z,65.22
2019-02-16T07:35:16.690Z,65.32
2019-02-16T07:36:16.620Z,65.11
2019-02-16T07:37:16.647Z,64.87
2019-02-16T07:38:16.614Z,65.08
2019-02-16T07:39:16.600Z,65.53
2019-02-16T07:40:16.623Z,65.11
2019-02-16T07:41:16.584Z,65.22
2019-02-16T07:42:16.568Z,64.98
2019-02-16T07:43:16.573Z,64.98
2019-02-16T07:44:16.537Z,64.98
2019-02-16T07:45:16.556Z,65.08
2019-02-16T07:46:16.529Z,64.36
2019-02-16T07:47:16.515Z,64.36
2019-02-16T07:48:16.541Z,64.64
2019-02-16T07:49:16.481Z,64.77
2019-02-16T07:50:16.488Z,63.60
2019-02-16T07:51:16.514Z,64.02
2019-02-16T07:52:16.467Z,63.60
2019-02-16T07:53:16.483Z,63.37
2019-02-16T07:54:16.439Z,63.26
2019-02-16T07:55:16.418Z,63.06
2019-02-16T07:56:16.414Z,63.06
2019-02-16T07:57:16.402Z,63.06
2019-02-16T07:58:16.420Z,62.85
2019-02-16T07:59:16.416Z,63.06
2019-02-16T08:00:16.386Z,63.16
2019-02-16T08:01:16.350Z,63.26
2019-02-16T08:02:16.380Z,63.06
2019-02-16T08:03:16.355Z,62.95
2019-02-16T08:04:16.322Z,63.06
2019-02-16T08:05:16.314Z,62.75
2019-02-16T08:06:16.307Z,62.51
2019-02-16T08:07:16.319Z,63.03
2019-02-16T08:08:16.341Z,61.99
2019-02-16T08:09:16.264Z,61.99
2019-02-16T08:10:16.308Z,62.62
2019-02-16T08:11:16.249Z,62.41
2019-02-16T08:12:16.245Z,62.51
2019-02-16T08:13:16.218Z,61.89
2019-02-16T08:14:16.229Z,61.99
2019-02-16T08:15:16.196Z,62.27
2019-02-16T08:16:16.188Z,61.45
2019-02-16T08:17:16.170Z,62.17
2019-02-16T08:18:16.188Z,61.24
2019-02-16T08:19:16.188Z,61.42
2019-02-16T08:20:16.140Z,61.14
2019-02-16T08:21:16.130Z,61.52
2019-02-16T08:22:16.127Z,61.22
2019-02-16T08:23:16.103Z,60.91
2019-02-16T08:24:16.131Z,60.28
2019-02-16T08:25:16.105Z,60.88
2019-02-16T08:26:16.078Z,60.26
2019-02-16T08:27:16.062Z,60.67
2019-02-16T08:28:16.102Z,60.16
2019-02-16T08:29:16.038Z,60.05
2019-02-16T08:30:16.052Z,59.74
2019-02-16T08:31:16.020Z,60.23
2019-02-16T08:32:16.005Z,60.77
2019-02-16T08:33:16.021Z,60.44
2019-02-16T08:34:15.989Z,59.92
2019-02-16T08:35:15.975Z,59.82
2019-02-16T08:36:15.993Z,60.33
2019-02-16T08:37:15.960Z,59.72
2019-02-16T08:38:15.973Z,59.61
2019-02-16T08:39:15.921Z,58.55
2019-02-16T08:40:15.911Z,58.86
2019-02-16T08:41:15.903Z,59.38
2019-02-16T08:42:15.887Z,59.07
2019-02-16T08:43:15.918Z,58.65
2019-02-16T08:44:15.903Z,58.22
2019-02-16T08:45:15.854Z,58.32
2019-02-16T08:46:15.845Z,57.39
2019-02-16T08:47:15.856Z,57.78
2019-02-16T08:48:15.845Z,58.01
2019-02-16T08:49:15.817Z,58.01
2019-02-16T08:50:15.815Z,57.78
2019-02-16T08:51:15.803Z,57.88
2019-02-16T08:52:15.789Z,57.26
2019-02-16T08:53:15.794Z,57.06
2019-02-16T08:54:15.753Z,57.65
2019-02-16T08:55:15.748Z,57.34
2019-02-16T08:56:15.749Z,57.24
2019-02-16T08:57:15.759Z,57.14
2019-02-16T08:58:15.710Z,57.03
2019-02-16T08:59:15.705Z,56.72
2019-02-16T09:00:15.693Z,56.08
2019-02-16T09:01:15.679Z,56.38
2019-02-16T09:02:15.706Z,55.26
2019-02-16T09:03:15.657Z,56.49
2019-02-16T09:04:15.640Z,56.18
2019-02-16T09:05:15.651Z,56.08
2019-02-16T09:06:15.620Z,55.33
2019-02-16T09:07:15.638Z,55.33
2019-02-16T09:08:15.598Z,55.85
2019-02-16T09:09:15.586Z,56.15
2019-02-16T09:10:15.577Z,56.13
2019-02-16T09:11:15.564Z,55.93
2019-02-16T09:12:15.586Z,55.30
2019-02-16T09:13:15.541Z,55.82
2019-02-16T09:14:15.526Z,55.62
2019-02-16T09:15:15.513Z,55.41
2019-02-16T09:16:15.509Z,55.41
2019-02-16T09:17:15.525Z,54.87
2019-02-16T09:18:15.483Z,54.77
2019-02-16T09:19:15.474Z,54.87
2019-02-16T09:20:15.481Z,54.77
2019-02-16T09:21:15.456Z,54.85
2019-02-16T09:22:15.468Z,54.33
2019-02-16T09:23:15.425Z,54.13
2019-02-16T09:24:15.422Z,54.23
2019-02-16T09:25:15.402Z,54.13
2019-02-16T09:26:15.392Z,54.95
2019-02-16T09:27:15.420Z,54.25
2019-02-16T09:28:15.381Z,55.46
2019-02-16T09:29:15.356Z,54.66
2019-02-16T09:30:15.338Z,54.23
2019-02-16T09:31:15.336Z,54.85
2019-02-16T09:32:15.355Z,54.33
2019-02-16T09:33:15.312Z,54.43
2019-02-16T09:34:15.295Z,54.21
2019-02-16T09:35:15.310Z,53.89
2019-02-16T09:36:15.294Z,54.21
2019-02-16T09:37:15.265Z,54.18
2019-02-16T09:38:15.247Z,53.87
2019-02-16T09:39:15.232Z,53.66
2019-02-16T09:40:15.253Z,52.84
2019-02-16T09:41:15.213Z,53.56
2019-02-16T09:42:15.202Z,54.36
2019-02-16T09:43:15.187Z,54.36
2019-02-16T09:44:15.171Z,52.84
2019-02-16T09:45:15.189Z,53.56
2019-02-16T09:46:15.147Z,53.85
2019-02-16T09:47:15.135Z,53.74
2019-02-16T09:48:15.128Z,53.12
2019-02-16T09:49:15.127Z,53.33
2019-02-16T09:50:15.145Z,52.61
2019-02-16T09:51:15.088Z,52.10
2019-02-16T09:52:15.117Z,52.31
2019-02-16T09:53:15.065Z,52.49
2019-02-16T09:54:15.050Z,52.77
2019-02-16T09:55:15.037Z,52.26
2019-02-16T09:56:15.026Z,51.85
2019-02-16T09:57:15.040Z,52.18
2019-02-16T09:58:15.005Z,52.08
2019-02-16T09:59:14.989Z,52.28
2019-02-16T10:00:14.976Z,52.87
2019-02-16T10:01:14.967Z,51.95
2019-02-16T10:02:14.975Z,51.85
2019-02-16T10:03:14.948Z,52.13
2019-02-16T10:04:14.925Z,50.80
2019-02-16T10:05:14.941Z,50.90
2019-02-16T10:06:14.907Z,50.90
2019-02-16T10:07:14.943Z,50.80
2019-02-16T10:08:14.883Z,51.08
2019-02-16T10:09:14.867Z,51.29
2019-02-16T10:10:14.854Z,50.47
2019-02-16T10:11:14.846Z,50.70
2019-02-16T10:12:14.860Z,51.50
2019-02-16T10:13:14.836Z,50.88
2019-02-16T10:14:14.802Z,51.06
2019-02-16T10:15:14.794Z,50.45
2019-02-16T10:16:14.779Z,50.88
2019-02-16T10:17:14.797Z,50.45
2019-02-16T10:18:14.759Z,50.75
2019-02-16T10:19:14.746Z,51.04
2019-02-16T10:20:14.769Z,49.89
2019-02-16T10:21:14.735Z,49.48
2019-02-16T10:22:14.709Z,49.22
2019-02-16T10:23:14.707Z,47.88
2019-02-16T10:24:17.808Z,46.79
2019-02-16T10:25:14.713Z,46.97
2019-02-16T10:26:14.664Z,44.59
2019-02-16T10:27:14.654Z,45.07
2019-02-16T10:28:14.644Z,43.77
2019-02-16T10:29:14.632Z,44.40
2019-02-16T10:30:14.650Z,44.79
2019-02-16T10:31:14.609Z,44.46
2019-02-16T10:32:14.599Z,44.28
2019-02-16T10:33:14.583Z,44.67
2019-02-16T10:34:14.621Z,44.34
2019-02-16T10:35:14.563Z,43.32
2019-02-16T10:36:14.557Z,44.12
2019-02-16T10:37:14.539Z,43.20
2019-02-16T10:38:14.528Z,44.26
2019-02-16T10:39:14.546Z,44.04
2019-02-16T10:40:14.507Z,43.32
2019-02-16T10:41:14.499Z,43.65
2019-02-16T10:42:14.485Z,44.67
2019-02-16T10:43:14.477Z,43.59
2019-02-16T10:44:14.490Z,42.13
2019-02-16T10:45:14.497Z,42.00
2019-02-16T10:46:14.439Z,40.91
2019-02-16T10:47:14.429Z,42.54
2019-02-16T10:48:14.417Z,42.31
2019-02-16T10:49:14.406Z,42.09
2019-02-16T10:50:14.423Z,41.16
2019-02-16T10:51:14.386Z,41.28
2019-02-16T10:52:14.375Z,42.54
2019-02-16T10:53:14.394Z,42.83
2019-02-16T10:54:14.357Z,44.81
2019-02-16T10:55:14.344Z,45.47
2019-02-16T10:56:14.335Z,46.51
2019-02-16T10:57:14.329Z,46.30
2019-02-16T10:58:14.335Z,47.34
2019-02-16T10:59:14.295Z,46.83
2019-02-16T11:00:14.288Z,47.24
2019-02-16T11:01:14.273Z,46.83
2019-02-16T11:02:14.806Z,47.65
2019-02-16T11:03:14.283Z,49.51
2019-02-16T11:04:14.272Z,47.98
2019-02-16T11:05:14.227Z,48.61
2019-02-16T11:06:14.216Z,48.10
2019-02-16T11:07:14.224Z,49.95
2019-02-16T11:08:14.222Z,48.84
2019-02-16T11:09:14.188Z,49.35
2019-02-16T11:10:14.172Z,49.46
2019-02-16T11:11:14.169Z,49.43
2019-02-16T11:12:14.160Z,49.51
2019-02-16T11:13:14.168Z,48.41
2019-02-16T11:14:14.126Z,49.02
2019-02-16T11:15:14.115Z,48.72
2019-02-16T11:16:14.108Z,48.21
2019-02-16T11:17:14.105Z,48.82
2019-02-16T11:18:14.118Z,49.54
2019-02-16T11:19:14.089Z,49.41
2019-02-16T11:20:14.060Z,49.21
2019-02-16T11:21:14.046Z,49.41
2019-02-16T11:22:14.045Z,50.56
2019-02-16T11:23:14.071Z,49.54
2019-02-16T11:24:14.039Z,49.43
2019-02-16T11:25:14.030Z,49.46
2019-02-16T11:26:13.991Z,49.35
2019-02-16T11:27:13.979Z,49.63
2019-02-16T11:28:13.974Z,50.66
2019-02-16T11:29:13.965Z,50.35
2019-02-16T11:30:13.977Z,50.58
2019-02-16T11:31:13.937Z,47.98
2019-02-16T11:32:13.926Z,47.67
2019-02-16T11:33:13.940Z,47.98
2019-02-16T11:34:13.926Z,47.67
2019-02-16T11:35:13.889Z,48.26
2019-02-16T11:36:13.879Z,48.08
2019-02-16T11:37:13.881Z,48.08
2019-02-16T11:38:13.883Z,48.18
2019-02-16T11:39:13.850Z,47.57
2019-02-16T11:40:13.835Z,47.75
2019-02-16T11:41:18.880Z,47.75
2019-02-16T11:42:14.807Z,48.03
2019-02-16T11:43:13.796Z,46.81
2019-02-16T11:44:13.806Z,47.96
2019-02-16T11:45:13.781Z,48.06
2019-02-16T11:46:13.794Z,48.16
2019-02-16T11:47:13.755Z,48.65
2019-02-16T11:48:13.748Z,47.94
2019-02-16T11:49:13.729Z,47.81
2019-02-16T11:50:13.759Z,47.91
2019-02-16T11:51:15.663Z,48.32
2019-02-16T11:52:13.697Z,47.71
2019-02-16T11:53:13.685Z,48.63
2019-02-16T11:54:13.675Z,48.22
2019-02-16T11:55:13.704Z,48.02
2019-02-16T11:56:13.653Z,47.83
2019-02-16T11:57:13.646Z,48.85
2019-02-16T11:58:13.628Z,48.24
2019-02-16T11:59:13.621Z,49.57
2019-02-16T12:00:13.641Z,49.26
2019-02-16T12:01:13.631Z,49.08
2019-02-16T12:02:13.583Z,48.80
2019-02-16T12:03:13.575Z,48.69
2019-02-16T12:04:13.561Z,49.82
2019-02-16T12:05:13.592Z,48.49
2019-02-16T12:06:13.537Z,47.73
2019-02-16T12:07:13.547Z,46.59
2019-02-16T12:08:13.514Z,47.17
2019-02-16T12:09:13.529Z,46.87
2019-02-16T12:10:13.525Z,46.56
2019-02-16T12:11:13.482Z,47.17
2019-02-16T12:12:13.480Z,47.20
2019-02-16T12:13:13.466Z,47.91
2019-02-16T12:14:13.449Z,47.20
2019-02-16T12:15:13.487Z,46.28
2019-02-16T12:16:13.423Z,47.20
2019-02-16T12:17:13.417Z,47.32
2019-02-16T12:18:13.404Z,47.02
2019-02-16T12:19:13.418Z,47.53
2019-02-16T12:20:13.386Z,46.81
2019-02-16T12:21:13.379Z,46.48
2019-02-16T12:22:13.381Z,46.67
2019-02-16T12:23:13.347Z,46.77
2019-02-16T12:24:13.335Z,47.79
2019-02-16T12:25:13.333Z,46.87
2019-02-16T12:26:13.311Z,46.48
2019-02-16T12:27:13.350Z,47.20
2019-02-16T12:28:13.291Z,44.85
2019-02-16T12:29:13.276Z,44.32
2019-02-16T12:30:13.272Z,46.79
2019-02-16T12:31:13.256Z,47.40
2019-02-16T12:32:13.286Z,45.57
2019-02-16T12:33:13.231Z,45.75
2019-02-16T12:34:13.271Z,45.65
2019-02-16T12:35:13.211Z,44.43
2019-02-16T12:36:13.196Z,44.02
2019-02-16T12:37:13.187Z,44.12
2019-02-16T12:38:13.173Z,43.29
2019-02-16T12:39:13.187Z,43.38
2019-02-16T12:40:13.183Z,44.71
2019-02-16T12:41:13.141Z,43.69
2019-02-16T12:42:13.139Z,43.69
2019-02-16T12:43:13.124Z,44.31
2019-02-16T12:44:13.152Z,43.69
2019-02-16T12:45:13.093Z,43.37
2019-02-16T12:46:13.095Z,43.29
2019-02-16T12:47:13.085Z,42.98
2019-02-16T12:48:13.075Z,43.41
2019-02-16T12:49:13.079Z,44.04
2019-02-16T12:50:13.036Z,43.84
2019-02-16T12:51:13.048Z,44.65
2019-02-16T12:52:13.023Z,44.75